Time;durP1;ratioP1;P1;durP2;ratioP2;P2;SDS_P1;SDS_P2;PMS_P1;PMS_P2;Temp;Humidity;BMP_temperature;BMP_pressure;BME280_temperature;BME280_humidity;BME280_pressure;Samples;Min_cycle;Max_cycle;Signal;HPM_P1;HPM_P2
2023/01/08 00:01:21;;;;;;;10.00;2.42;;;;;;;9.82;100.00;100319.59;5205203;28;20017;-77
2023/01/08 00:03:51;;;;;;;6.05;2.53;;;;;;;9.85;100.00;100311.22;5209959;28;20024;-76
2023/01/08 00:06:22;;;;;;;4.30;2.35;;;;;;;9.88;100.00;100323.41;5215903;28;20025;-76
2023/01/08 00:08:52;;;;;;;10.27;3.10;;;;;;;9.94;100.00;100311.16;5219379;28;20104;-76
2023/01/08 00:11:23;;;;;;;7.97;2.80;;;;;;;9.98;100.00;100310.66;5205947;28;20413;-76
2023/01/08 00:13:54;;;;;;;10.30;3.70;;;;;;;9.98;100.00;100302.59;5212199;28;20035;-77
2023/01/08 00:16:24;;;;;;;8.25;2.85;;;;;;;9.96;100.00;100299.28;5214520;28;20032;-76
2023/01/08 00:18:55;;;;;;;9.00;2.80;;;;;;;10.00;100.00;100305.13;5213811;28;20606;-76
2023/01/08 00:21:26;;;;;;;8.30;2.50;;;;;;;10.02;100.00;100303.94;5212778;28;20489;-76
2023/01/08 00:23:56;;;;;;;8.95;2.70;;;;;;;10.05;100.00;100300.91;5216197;28;20021;-76
2023/01/08 00:26:27;;;;;;;7.60;2.58;;;;;;;10.10;100.00;100308.44;5208326;28;20025;-76
2023/01/08 00:28:57;;;;;;;10.02;2.85;;;;;;;10.12;100.00;100304.53;5226431;28;20029;-76
2023/01/08 00:31:27;;;;;;;8.20;2.90;;;;;;;10.12;100.00;100299.19;5212406;28;20021;-76
2023/01/08 00:33:58;;;;;;;8.75;3.00;;;;;;;10.17;100.00;100309.38;5223635;28;20061;-76
2023/01/08 00:36:28;;;;;;;9.98;2.42;;;;;;;10.17;100.00;100322.78;5211645;28;20021;-76
2023/01/08 00:38:59;;;;;;;6.05;1.80;;;;;;;9.76;100.00;100330.19;5226342;28;20017;-77
2023/01/08 00:41:30;;;;;;;4.13;1.73;;;;;;;9.29;100.00;100339.03;5235108;28;20032;-77
2023/01/08 00:44:00;;;;;;;3.80;0.80;;;;;;;8.95;100.00;100331.22;5226269;28;20485;-77
2023/01/08 00:46:31;;;;;;;3.45;0.70;;;;;;;8.70;100.00;100323.19;5226227;28;20029;-77
2023/01/08 00:49:01;;;;;;;2.55;0.50;;;;;;;8.51;100.00;100334.19;5212746;28;20028;-77
2023/01/08 00:51:32;;;;;;;3.47;0.60;;;;;;;8.35;100.00;100329.63;5226509;28;20381;-77
2023/01/08 00:54:02;;;;;;;2.63;0.65;;;;;;;8.09;100.00;100329.75;5222951;28;20027;-77
2023/01/08 00:56:33;;;;;;;7.28;1.23;;;;;;;7.88;100.00;100332.84;5216607;28;20032;-77
2023/01/08 00:59:03;;;;;;;3.47;0.90;;;;;;;7.76;100.00;100328.78;5225967;28;20044;-77
2023/01/08 01:01:34;;;;;;;6.57;1.20;;;;;;;7.58;100.00;100325.34;5224508;28;20104;-77
2023/01/08 01:04:04;;;;;;;4.00;0.60;;;;;;;7.69;100.00;100328.59;5219368;28;20035;-76
2023/01/08 01:06:34;;;;;;;5.82;0.68;;;;;;;7.76;100.00;100326.94;5205386;28;20056;-77
2023/01/08 01:09:05;;;;;;;3.22;0.82;;;;;;;7.82;100.00;100327.31;5212178;28;20465;-77
2023/01/08 01:11:35;;;;;;;10.15;1.00;;;;;;;7.81;100.00;100318.47;5222877;28;20115;-78
2023/01/08 01:14:06;;;;;;;4.38;0.77;;;;;;;7.73;100.00;100311.25;5205677;28;20080;-78
2023/01/08 01:16:38;;;;;;;4.35;1.65;;;;;;;7.67;100.00;100311.88;5213771;28;20033;-77
2023/01/08 01:19:09;;;;;;;8.68;0.93;;;;;;;7.67;100.00;100303.88;5226116;28;20482;-77
2023/01/08 01:21:40;;;;;;;3.30;1.05;;;;;;;7.67;100.00;100292.38;5208993;28;20108;-77
2023/01/08 01:24:12;;;;;;;5.80;0.90;;;;;;;7.65;100.00;100281.84;5205562;28;20100;-77
2023/01/08 01:26:42;;;;;;;5.50;1.02;;;;;;;7.69;100.00;100285.03;5217913;28;20465;-78
2023/01/08 01:29:13;;;;;;;6.10;1.00;;;;;;;7.69;100.00;100285.03;5203553;28;20107;-77
2023/01/08 01:31:43;;;;;;;4.40;0.80;;;;;;;7.74;100.00;100280.06;5217594;28;20156;-77
2023/01/08 01:34:14;;;;;;;3.20;1.00;;;;;;;7.77;100.00;100291.22;5216531;28;20144;-76
2023/01/08 01:36:44;;;;;;;10.07;1.20;;;;;;;7.81;100.00;100281.06;5204949;28;20044;-77
2023/01/08 01:39:15;;;;;;;6.43;1.00;;;;;;;7.80;100.00;100287.41;5204297;28;20047;-77
2023/01/08 01:41:46;;;;;;;8.48;1.50;;;;;;;7.75;100.00;100281.72;5234734;28;20401;-76
2023/01/08 01:44:34;;;;;;;3.65;0.90;;;;;;;7.82;100.00;100268.56;5222898;28;20059;-77
2023/01/08 01:47:21;;;;;;;9.50;1.42;;;;;;;7.82;100.00;100272.06;5217316;28;20048;-78
2023/01/08 01:50:04;;;;;;;10.52;2.35;;;;;;;7.78;100.00;100268.03;5224814;28;20884;-77
2023/01/08 01:52:44;;;;;;;5.28;0.90;;;;;;;7.78;100.00;100260.03;5223792;28;20071;-77
2023/01/08 01:55:15;;;;;;;5.00;1.30;;;;;;;7.81;100.00;100261.53;5212839;28;20025;-77
2023/01/08 01:57:51;;;;;;;10.00;1.20;;;;;;;7.83;100.00;100271.09;5209784;28;20100;-77
2023/01/08 02:00:23;;;;;;;4.10;1.00;;;;;;;7.82;100.00;100273.88;5222580;28;20048;-77
2023/01/08 02:02:54;;;;;;;6.35;1.02;;;;;;;7.79;100.00;100275.06;5204568;28;20103;-77
2023/01/08 02:05:36;;;;;;;4.93;0.70;;;;;;;7.81;100.00;100282.91;5216591;28;20029;-77
2023/01/08 02:08:11;;;;;;;4.22;1.08;;;;;;;7.83;100.00;100278.22;5215282;28;20028;-77
2023/01/08 02:10:53;;;;;;;3.13;0.90;;;;;;;7.85;100.00;100273.59;5210616;28;20036;-77
2023/01/08 02:13:30;;;;;;;5.72;1.10;;;;;;;7.89;100.00;100272.25;5209893;28;20033;-76
2023/01/08 02:16:30;;;;;;;4.85;1.00;;;;;;;7.90;100.00;100272.09;5218172;28;20023;-77
2023/01/08 02:19:17;;;;;;;5.47;1.02;;;;;;;7.95;100.00;100269.75;5211982;28;20031;-76
2023/01/08 02:22:07;;;;;;;5.22;1.10;;;;;;;7.98;100.00;100269.44;5224275;28;20074;-77
2023/01/08 02:24:54;;;;;;;4.30;1.55;;;;;;;8.00;100.00;100263.94;5209854;28;20397;-77
2023/01/08 02:27:29;;;;;;;6.03;1.42;;;;;;;8.05;100.00;100258.94;5213723;28;20021;-77
2023/01/08 02:30:01;;;;;;;4.38;1.13;;;;;;;8.10;100.00;100253.09;5219670;28;20520;-77
2023/01/08 02:32:36;;;;;;;10.20;1.75;;;;;;;8.13;100.00;100250.09;5216033;28;20024;-77
2023/01/08 02:35:09;;;;;;;13.20;1.55;;;;;;;8.16;100.00;100244.41;5203378;28;20389;-77
2023/01/08 02:37:40;;;;;;;6.95;1.27;;;;;;;8.19;100.00;100244.09;5217188;28;20024;-77
2023/01/08 02:40:18;;;;;;;5.55;1.40;;;;;;;8.19;100.00;100241.44;5219658;28;20540;-77
2023/01/08 02:42:55;;;;;;;5.13;1.70;;;;;;;8.21;100.00;100245.59;5223264;28;20087;-77
2023/01/08 02:45:34;;;;;;;5.43;1.42;;;;;;;8.21;100.00;100244.75;5215074;28;20366;-77
2023/01/08 02:48:11;;;;;;;16.85;2.38;;;;;;;8.23;100.00;100248.94;5211239;28;20028;-76
2023/01/08 02:50:41;;;;;;;8.25;1.92;;;;;;;8.29;100.00;100240.25;5209265;28;20390;-77
2023/01/08 02:53:19;;;;;;;5.78;1.83;;;;;;;8.32;100.00;100234.56;5214953;28;20045;-77
2023/01/08 02:56:13;;;;;;;10.35;1.90;;;;;;;8.32;100.00;100241.75;5221512;28;20460;-77
2023/01/08 02:58:46;;;;;;;10.93;2.97;;;;;;;8.25;100.00;100240.75;5209395;28;20497;-77
2023/01/08 03:01:19;;;;;;;8.20;1.60;;;;;;;8.24;100.00;100236.44;5201999;28;20056;-77
2023/01/08 03:03:55;;;;;;;6.00;1.40;;;;;;;8.23;100.00;100238.25;5219400;28;20021;-77
2023/01/08 03:06:27;;;;;;;7.50;2.17;;;;;;;8.20;100.00;100240.41;5222909;28;20021;-77
2023/01/08 03:08:59;;;;;;;5.68;1.73;;;;;;;8.19;100.00;100242.25;5217929;28;20112;-77
2023/01/08 03:11:36;;;;;;;12.50;2.70;;;;;;;8.18;100.00;100237.94;5216179;28;20029;-77
2023/01/08 03:14:14;;;;;;;5.18;1.98;;;;;;;8.26;100.00;100243.25;5211486;28;20025;-77
2023/01/08 03:16:58;;;;;;;9.43;1.83;;;;;;;8.29;100.00;100240.25;5214576;28;20021;-77
2023/01/08 03:19:35;;;;;;;8.45;1.75;;;;;;;8.24;100.00;100221.22;5216754;28;20497;-77
2023/01/08 03:22:10;;;;;;;2.15;1.25;;;;;;;8.16;100.00;100207.00;5216434;28;20091;-77
2023/01/08 03:24:41;;;;;;;;;;;;;;;8.11;100.00;100201.34;5204522;28;20013;-77
2023/01/08 03:27:20;;;;;;;2.10;0.75;;;;;;;8.09;100.00;100204.19;5213521;28;19913;-77
2023/01/08 03:29:54;;;;;;;3.03;0.70;;;;;;;7.98;100.00;100204.47;5217616;28;20489;-77
2023/01/08 03:32:28;;;;;;;5.80;0.82;;;;;;;8.01;100.00;100207.66;5214918;28;20024;-76
2023/01/08 03:35:01;;;;;;;3.20;0.80;;;;;;;7.98;100.00;100225.84;5213056;28;20691;-77
2023/01/08 03:37:35;;;;;;;5.13;1.00;;;;;;;7.98;100.00;100224.03;5207321;28;20029;-77
2023/01/08 03:40:10;;;;;;;4.80;1.03;;;;;;;7.99;100.00;100228.38;5214030;28;20032;-77
2023/01/08 03:42:41;;;;;;;1.40;1.00;;;;;;;7.97;100.00;100227.69;5224442;28;20373;-77
2023/01/08 03:45:11;;;;;;;6.32;1.27;;;;;;;7.94;100.00;100224.53;5217843;28;20354;-77
2023/01/08 03:47:43;;;;;;;6.00;1.58;;;;;;;7.93;100.00;100223.69;5208395;28;20030;-77
2023/01/08 03:50:21;;;;;;;6.05;1.48;;;;;;;7.96;100.00;100209.16;5217659;28;20040;-77
2023/01/08 03:52:51;;;;;;;4.25;1.10;;;;;;;7.94;100.00;100221.84;5212733;28;20560;-77
2023/01/08 03:55:22;;;;;;;2.40;0.77;;;;;;;7.96;100.00;100223.34;5227395;28;20108;-76
2023/01/08 03:57:52;;;;;;;6.00;1.10;;;;;;;7.98;100.00;100215.16;5227587;28;20028;-77
2023/01/08 04:00:23;;;;;;;2.95;1.10;;;;;;;7.96;100.00;100210.00;5211376;28;20029;-76
2023/01/08 04:02:53;;;;;;;9.00;1.20;;;;;;;7.97;100.00;100213.50;5214845;28;20397;-77
2023/01/08 04:05:24;;;;;;;6.22;1.10;;;;;;;7.93;100.00;100218.34;5213844;28;20074;-77
2023/01/08 04:07:55;;;;;;;5.45;0.80;;;;;;;7.87;100.00;100210.97;5216571;28;20494;-76
2023/01/08 04:10:26;;;;;;;9.93;1.15;;;;;;;7.86;100.00;100211.97;5206132;28;20049;-76
2023/01/08 04:12:57;;;;;;;4.90;1.27;;;;;;;7.89;100.00;100206.31;5218692;28;20102;-76
2023/01/08 04:15:27;;;;;;;5.78;1.30;;;;;;;7.85;100.00;100210.31;5209811;28;20160;-76
2023/01/08 04:17:58;;;;;;;6.22;1.10;;;;;;;7.87;100.00;100218.16;5227183;28;20025;-76
2023/01/08 04:20:28;;;;;;;6.50;1.30;;;;;;;7.77;100.00;100215.63;5226735;28;20021;-77
2023/01/08 04:22:59;;;;;;;5.25;1.23;;;;;;;7.76;100.00;100200.63;5212340;28;20029;-77
2023/01/08 04:25:29;;;;;;;5.05;1.17;;;;;;;7.75;100.00;100214.97;5206581;28;20501;-76
2023/01/08 04:28:00;;;;;;;10.55;2.08;;;;;;;7.74;100.00;100215.97;5208366;28;20028;-75
2023/01/08 04:30:31;;;;;;;12.25;1.98;;;;;;;7.72;100.00;100205.44;5225186;28;20389;-76
2023/01/08 04:33:01;;;;;;;5.68;1.10;;;;;;;7.73;100.00;100215.16;5223385;28;20060;-76
2023/01/08 04:35:32;;;;;;;7.22;1.27;;;;;;;7.76;100.00;100217.47;5220052;28;20033;-75
2023/01/08 04:38:03;;;;;;;13.65;2.25;;;;;;;7.77;100.00;100212.97;5221685;28;20026;-76
2023/01/08 04:40:33;;;;;;;11.15;1.38;;;;;;;7.74;100.00;100213.31;5217733;28;20419;-76
2023/01/08 04:43:04;;;;;;;8.80;2.13;;;;;;;7.70;100.00;100210.13;5219121;28;20580;-76
2023/01/08 04:45:34;;;;;;;9.60;1.58;;;;;;;7.64;100.00;100204.59;5206489;28;20144;-75
2023/01/08 04:48:06;;;;;;;6.07;1.20;;;;;;;7.65;100.00;100208.94;5218077;28;20048;-75
2023/01/08 04:50:36;;;;;;;10.15;1.35;;;;;;;7.56;100.00;100204.56;5217479;28;20024;-76
2023/01/08 04:53:07;;;;;;;12.38;1.95;;;;;;;7.48;100.00;100213.38;5214404;28;20025;-75
2023/01/08 04:55:37;;;;;;;7.03;1.20;;;;;;;7.45;100.00;100209.22;5210056;28;20052;-76
2023/01/08 04:58:08;;;;;;;8.80;1.52;;;;;;;7.34;100.00;100200.66;5205985;28;20064;-75
2023/01/08 05:00:39;;;;;;;7.28;1.00;;;;;;;7.26;100.00;100201.47;5222656;28;20095;-76
2023/01/08 05:03:09;;;;;;;9.40;1.30;;;;;;;7.15;100.00;100191.91;5226285;28;20032;-76
2023/01/08 05:05:40;;;;;;;10.43;1.40;;;;;;;7.01;100.00;100188.00;5206821;28;20025;-76
2023/01/08 05:08:10;;;;;;;9.52;1.40;;;;;;;6.98;100.00;100206.19;5218399;28;20052;-76
2023/01/08 05:10:41;;;;;;;18.20;2.92;;;;;;;6.86;100.00;100205.59;5225599;28;20429;-76
2023/01/08 05:13:11;;;;;;;9.80;1.40;;;;;;;6.77;100.00;100203.03;5212094;28;20243;-76
2023/01/08 05:15:41;;;;;;;6.30;1.30;;;;;;;6.70;100.00;100205.50;5207252;28;20044;-76
2023/01/08 05:18:12;;;;;;;5.50;1.13;;;;;;;6.65;100.00;100207.78;5204978;28;20490;-76
2023/01/08 05:20:42;;;;;;;4.45;0.88;;;;;;;6.61;100.00;100201.09;5213867;28;20021;-76
2023/01/08 05:23:13;;;;;;;8.20;1.08;;;;;;;6.59;100.00;100200.44;5209590;28;20075;-76
2023/01/08 05:25:43;;;;;;;9.00;1.35;;;;;;;6.52;100.00;100196.69;5205199;28;20075;-76
2023/01/08 05:28:14;;;;;;;8.43;1.20;;;;;;;6.50;100.00;100196.88;5205027;28;20049;-76
2023/01/08 05:30:44;;;;;;;13.73;1.73;;;;;;;6.48;100.00;100194.38;5204670;28;20083;-75
2023/01/08 05:33:14;;;;;;;13.38;2.22;;;;;;;6.48;100.00;100198.88;5218325;28;20044;-75
2023/01/08 05:35:45;;;;;;;14.65;2.13;;;;;;;6.47;100.00;100195.34;5218181;28;20081;-76
2023/01/08 05:38:15;;;;;;;9.30;2.25;;;;;;;6.44;100.00;100206.31;5225904;28;20028;-76
2023/01/08 05:40:46;;;;;;;16.60;2.15;;;;;;;6.40;100.00;100201.47;5231731;28;20052;-75
2023/01/08 05:43:16;;;;;;;6.32;1.85;;;;;;;6.33;100.00;100195.09;5207733;28;20029;-76
2023/01/08 05:45:47;;;;;;;15.88;2.83;;;;;;;6.23;100.00;100195.19;5219751;28;20054;-76
2023/01/08 05:48:17;;;;;;;13.93;3.28;;;;;;;6.19;100.00;100194.63;5205605;28;20025;-76
2023/01/08 05:50:49;;;;;;;14.80;2.60;;;;;;;6.21;100.00;100189.16;5208077;28;20032;-75
2023/01/08 05:53:19;;;;;;;10.85;2.67;;;;;;;6.19;100.00;100194.63;5214710;28;20510;-76
2023/01/08 05:55:50;;;;;;;14.50;3.40;;;;;;;6.20;100.00;100192.81;5223306;28;20056;-76
2023/01/08 05:58:20;;;;;;;10.38;2.53;;;;;;;6.20;100.00;100203.47;5213131;28;20032;-76
2023/01/08 06:00:50;;;;;;;11.40;3.60;;;;;;;6.20;100.00;100200.78;5210796;28;20021;-75
2023/01/08 06:03:22;;;;;;;11.55;2.40;;;;;;;6.18;100.00;100200.97;5224739;28;20025;-76
2023/01/08 06:05:57;;;;;;;15.20;2.72;;;;;;;6.23;100.00;100205.81;5202948;28;20033;-76
2023/01/08 06:08:29;;;;;;;6.85;2.13;;;;;;;6.19;100.00;100210.63;5204338;28;20033;-76
2023/01/08 06:11:01;;;;;;;12.65;2.50;;;;;;;6.15;100.00;100211.91;5203641;28;20143;-76
2023/01/08 06:13:33;;;;;;;14.38;2.25;;;;;;;6.12;100.00;100208.69;5219930;28;20028;-76
2023/01/08 06:16:04;;;;;;;13.18;2.65;;;;;;;6.06;100.00;100199.50;5222674;28;20117;-76
2023/01/08 06:18:35;;;;;;;11.00;2.83;;;;;;;6.06;100.00;100201.34;5210862;28;20099;-75
2023/01/08 06:21:05;;;;;;;12.85;2.58;;;;;;;5.98;100.00;100199.44;5212473;28;20025;-75
2023/01/08 06:23:36;;;;;;;7.25;2.13;;;;;;;5.97;100.00;100192.44;5223545;28;20060;-76
2023/01/08 06:26:06;;;;;;;18.35;2.40;;;;;;;6.06;100.00;100193.34;5211265;28;20048;-76
2023/01/08 06:28:37;;;;;;;7.82;3.05;;;;;;;6.01;100.00;100188.47;5211127;28;20785;-76
2023/01/08 06:31:07;;;;;;;8.27;1.52;;;;;;;5.97;100.00;100184.44;5222873;28;20028;-76
2023/01/08 06:33:38;;;;;;;10.85;1.88;;;;;;;5.95;100.00;100194.41;5211084;28;20052;-76
2023/01/08 06:36:08;;;;;;;10.25;1.55;;;;;;;5.92;100.00;100195.56;5204217;28;20029;-76
2023/01/08 06:38:39;;;;;;;10.52;1.23;;;;;;;5.91;100.00;100185.03;5204025;28;20135;-76
2023/01/08 06:41:10;;;;;;;10.88;2.13;;;;;;;5.90;100.00;100186.84;5214045;28;20021;-76
2023/01/08 06:43:40;;;;;;;8.45;1.45;;;;;;;5.89;100.00;100182.53;5203552;28;20477;-75
2023/01/08 06:46:11;;;;;;;9.82;1.20;;;;;;;5.88;100.00;100186.19;5203977;28;20141;-76
2023/01/08 06:48:41;;;;;;;8.43;1.77;;;;;;;5.87;100.00;100192.50;5202571;28;20049;-75
2023/01/08 06:51:12;;;;;;;7.32;1.50;;;;;;;5.86;100.00;100193.47;5209753;28;20040;-76
2023/01/08 06:53:42;;;;;;;7.00;1.50;;;;;;;5.84;100.00;100187.47;5210467;28;20116;-76
2023/01/08 06:56:12;;;;;;;7.93;1.15;;;;;;;5.85;100.00;100188.28;5204218;28;20029;-76
2023/01/08 06:58:43;;;;;;;9.05;1.10;;;;;;;5.79;100.00;100200.38;5203699;28;20030;-76
2023/01/08 07:01:15;;;;;;;13.50;1.67;;;;;;;5.84;100.00;100208.75;5211963;28;20029;-75
2023/01/08 07:03:45;;;;;;;6.45;1.38;;;;;;;5.85;100.00;100201.59;5221015;28;20017;-75
2023/01/08 07:06:19;;;;;;;8.70;1.88;;;;;;;5.85;100.00;100205.09;5203459;28;20071;-76
2023/01/08 07:08:49;;;;;;;9.20;2.28;;;;;;;5.88;100.00;100207.47;5203436;28;20466;-76
2023/01/08 07:11:20;;;;;;;11.80;1.50;;;;;;;5.92;100.00;100205.34;5205542;28;20036;-76
2023/01/08 07:13:51;;;;;;;11.73;1.38;;;;;;;5.94;100.00;100200.75;5226238;28;20025;-75
2023/01/08 07:16:21;;;;;;;12.60;2.55;;;;;;;5.91;100.00;100204.53;5221112;28;20029;-75
2023/01/08 07:18:52;;;;;;;12.90;1.73;;;;;;;5.87;100.00;100205.81;5220629;28;20034;-76
2023/01/08 07:21:22;;;;;;;12.05;1.63;;;;;;;5.99;100.00;100202.94;5221508;28;20057;-76
2023/01/08 07:23:53;;;;;;;9.93;1.73;;;;;;;6.03;100.00;100196.34;5227941;28;20147;-76
2023/01/08 07:26:23;;;;;;;9.35;2.13;;;;;;;6.09;100.00;100187.72;5217440;28;20169;-76
2023/01/08 07:28:54;;;;;;;11.85;2.70;;;;;;;6.12;100.00;100188.22;5212502;28;20482;-76
2023/01/08 07:31:24;;;;;;;12.05;2.17;;;;;;;6.16;100.00;100178.94;5209053;28;20112;-76
2023/01/08 07:33:55;;;;;;;15.02;2.90;;;;;;;6.21;100.00;100178.50;5223793;28;20129;-76
2023/01/08 07:36:25;;;;;;;13.40;1.85;;;;;;;6.20;100.00;100182.16;5211167;28;20074;-76
2023/01/08 07:38:56;;;;;;;18.73;2.30;;;;;;;6.22;100.00;100178.34;5227313;28;20028;-76
2023/01/08 07:41:26;;;;;;;19.15;2.28;;;;;;;6.26;100.00;100186.84;5229817;28;20464;-76
2023/01/08 07:43:57;;;;;;;10.95;1.90;;;;;;;6.30;100.00;100180.22;5206542;28;20071;-76
2023/01/08 07:46:27;;;;;;;13.90;2.00;;;;;;;6.30;100.00;100171.41;5225712;28;20028;-76
2023/01/08 07:48:59;;;;;;;21.05;2.80;;;;;;;6.32;100.00;100167.59;5213216;28;20033;-75
2023/01/08 07:51:29;;;;;;;12.40;2.13;;;;;;;6.30;100.00;100166.06;5217360;28;20385;-76
2023/01/08 07:54:00;;;;;;;12.30;1.83;;;;;;;6.35;100.00;100161.13;5219398;28;20028;-75
2023/01/08 07:56:31;;;;;;;17.48;2.35;;;;;;;6.34;100.00;100165.63;5206017;28;20949;-76
2023/01/08 07:59:01;;;;;;;15.63;2.92;;;;;;;6.35;100.00;100169.94;5210941;28;20021;-76
2023/01/08 08:01:32;;;;;;;15.43;2.72;;;;;;;6.32;100.00;100167.59;5226082;28;20365;-76
2023/01/08 08:04:02;;;;;;;15.95;2.55;;;;;;;6.30;100.00;100155.44;5213077;28;20029;-75
2023/01/08 08:06:33;;;;;;;9.30;2.53;;;;;;;6.29;100.00;100165.25;5228295;28;20021;-75
2023/01/08 08:09:03;;;;;;;11.73;2.45;;;;;;;6.30;100.00;100168.75;5235151;28;20024;-76
2023/01/08 08:11:34;;;;;;;28.27;3.25;;;;;;;6.31;100.00;100160.59;5229606;28;20016;-76
2023/01/08 08:14:04;;;;;;;12.65;2.55;;;;;;;6.29;100.00;100154.59;5232208;28;20614;-75
2023/01/08 08:16:35;;;;;;;14.65;2.65;;;;;;;6.28;100.00;100150.25;5234666;28;20035;-75
2023/01/08 08:19:05;;;;;;;19.98;3.88;;;;;;;6.30;100.00;100158.91;5235521;28;20021;-75
2023/01/08 08:21:36;;;;;;;19.67;3.42;;;;;;;6.32;100.00;100159.59;5227139;28;20038;-75
2023/01/08 08:24:06;;;;;;;16.23;2.50;;;;;;;6.36;100.00;100154.78;5236362;28;20029;-76
2023/01/08 08:26:37;;;;;;;11.32;3.00;;;;;;;6.39;100.00;100158.00;5230446;28;20059;-74
2023/01/08 08:29:07;;;;;;;10.10;2.15;;;;;;;6.48;100.00;100161.56;5232897;28;20481;-77
2023/01/08 08:31:38;;;;;;;10.10;2.17;;;;;;;6.55;100.00;100151.94;5233523;28;20017;-76
2023/01/08 08:34:08;;;;;;;12.38;1.92;;;;;;;6.63;100.00;100153.81;5234908;28;20511;-76
2023/01/08 08:36:39;;;;;;;13.40;3.10;;;;;;;6.73;100.00;100158.03;5232498;28;20039;-76
2023/01/08 08:39:09;;;;;;;11.88;2.75;;;;;;;6.81;100.00;100157.25;5232048;28;20023;-76
2023/01/08 08:41:41;;;;;;;16.77;2.63;;;;;;;6.90;100.00;100144.78;5232046;28;20385;-76
2023/01/08 08:44:11;;;;;;;11.15;2.22;;;;;;;6.98;100.00;100142.16;5233914;28;20031;-76
2023/01/08 08:46:42;;;;;;;8.45;1.95;;;;;;;7.07;100.00;100145.69;5233196;28;20024;-76
2023/01/08 08:49:12;;;;;;;12.07;2.47;;;;;;;7.09;100.00;100133.03;5228095;28;20082;-76
2023/01/08 08:51:43;;;;;;;12.93;2.55;;;;;;;7.12;100.00;100132.69;5232599;28;20008;-76
2023/01/08 08:54:14;;;;;;;14.98;1.73;;;;;;;7.16;100.00;100129.56;5236122;28;20484;-75
2023/01/08 08:56:47;;;;;;;12.65;1.98;;;;;;;7.17;100.00;100133.88;5231978;28;20369;-76
2023/01/08 08:59:17;;;;;;;9.50;2.28;;;;;;;7.17;100.00;100131.22;5227748;28;20048;-76
2023/01/08 09:01:47;;;;;;;15.55;2.10;;;;;;;7.18;100.00;100126.75;5231944;28;20155;-76
2023/01/08 09:04:18;;;;;;;10.23;2.17;;;;;;;7.24;100.00;100121.59;5228905;28;20035;-76
2023/01/08 09:06:48;;;;;;;5.68;1.45;;;;;;;7.34;100.00;100112.63;5229636;28;20039;-76
2023/01/08 09:09:19;;;;;;;9.32;2.45;;;;;;;7.36;100.00;100111.44;5231323;28;20032;-76
2023/01/08 09:11:51;;;;;;;9.48;1.98;;;;;;;7.39;100.00;100107.63;5226456;28;20036;-75
2023/01/08 09:14:22;;;;;;;14.35;3.35;;;;;;;7.40;100.00;100114.63;5228637;28;20028;-76
2023/01/08 09:16:53;;;;;;;12.07;2.17;;;;;;;7.42;100.00;100117.94;5231703;28;20485;-76
2023/01/08 09:19:23;;;;;;;6.15;2.20;;;;;;;7.42;100.00;100113.44;5233321;28;20020;-76
2023/01/08 09:21:53;;;;;;;6.65;2.08;;;;;;;7.41;100.00;100114.44;5228324;28;20473;-76
2023/01/08 09:24:24;;;;;;;14.77;2.58;;;;;;;7.47;100.00;100104.94;5226803;28;20037;-76
2023/01/08 09:26:54;;;;;;;12.75;2.80;;;;;;;7.48;100.00;100106.63;5229818;28;20381;-76
2023/01/08 09:29:25;;;;;;;5.50;1.73;;;;;;;7.51;100.00;100109.78;5224689;28;21641;-75
2023/01/08 09:31:59;;;;;;;10.38;2.00;;;;;;;7.58;100.00;100112.66;5232951;28;20481;-76
2023/01/08 09:34:30;;;;;;;11.02;2.30;;;;;;;7.67;100.00;100110.81;5226347;28;20064;-76
2023/01/08 09:37:02;;;;;;;13.23;2.10;;;;;;;7.68;100.00;100110.66;5230013;28;20024;-76
2023/01/08 09:39:33;;;;;;;5.40;1.95;;;;;;;7.82;100.00;100108.31;5233033;28;20028;-76
2023/01/08 09:42:05;;;;;;;6.78;1.90;;;;;;;8.05;100.00;100104.00;5232030;28;20029;-76
2023/01/08 09:44:39;;;;;;;3.67;1.05;;;;;;;8.26;100.00;100098.13;5234066;28;20421;-76
2023/01/08 09:47:38;;;;;;;5.05;1.50;;;;;;;8.35;100.00;100106.97;5231751;28;20047;-76
2023/01/08 09:50:12;;;;;;;3.40;0.98;;;;;;;8.29;100.00;100095.94;5231856;28;20680;-76
2023/01/08 09:52:43;;;;;;;4.00;1.00;;;;;;;8.21;100.00;100097.78;5237193;28;20074;-76
2023/01/08 09:55:15;;;;;;;8.18;1.30;;;;;;;8.17;100.00;100094.63;5227625;28;20028;-75
2023/01/08 09:57:47;;;;;;;2.60;0.93;;;;;;;8.08;100.00;100094.78;5231686;28;20100;-76
2023/01/08 10:00:25;;;;;;;1.75;0.73;;;;;;;8.23;100.00;100093.09;5225725;28;20558;-75
2023/01/08 10:02:57;;;;;;;0.93;0.40;;;;;;;8.79;100.00;100083.31;5228772;28;20024;-76
2023/01/08 10:05:29;;;;;;;0.85;0.50;;;;;;;9.22;100.00;100083.78;5230436;28;20051;-76
2023/01/08 10:07:59;;;;;;;2.60;0.47;;;;;;;9.54;100.00;100070.19;5229871;28;20025;-76
2023/01/08 10:10:31;;;;;;;4.53;0.80;;;;;;;9.60;100.00;100069.47;5224534;28;20025;-75
2023/01/08 10:13:01;;;;;;;1.95;0.50;;;;;;;9.57;100.00;100075.16;5229576;28;20031;-76
2023/01/08 10:15:32;;;;;;;2.92;0.77;;;;;;;9.50;100.00;100074.22;5228437;28;20028;-76
2023/01/08 10:18:06;;;;;;;2.30;0.70;;;;;;;9.72;100.00;100080.59;5234079;28;20021;-76
2023/01/08 10:20:38;;;;;;;3.05;0.55;;;;;;;9.72;100.00;100083.25;5230972;28;20033;-76
2023/01/08 10:23:15;;;;;;;1.00;0.40;;;;;;;9.66;100.00;100083.16;5233081;28;20041;-75
2023/01/08 10:25:56;;;;;;;2.60;0.47;;;;;;;9.71;100.00;100080.78;5226846;28;20509;-76
2023/01/08 10:28:34;;;;;;;8.73;0.40;;;;;;;9.86;100.00;100074.44;5228481;28;20053;-75
2023/01/08 10:31:13;;;;;;;2.78;0.77;;;;;;;9.66;100.00;100075.13;5231812;28;20028;-76
2023/01/08 10:33:47;;;;;;;3.28;0.60;;;;;;;9.57;100.00;100074.34;5233512;28;20129;-77
2023/01/08 10:36:22;;;;;;;4.88;0.55;;;;;;;9.84;100.00;100073.81;5224883;28;20035;-76
2023/01/08 10:38:59;;;;;;;2.42;0.80;;;;;;;9.88;100.00;100065.38;5228158;28;20024;-77
2023/01/08 10:41:30;;;;;;;3.58;0.80;;;;;;;9.95;100.00;100064.50;5229166;28;20029;-77
2023/01/08 10:44:03;;;;;;;5.82;0.65;;;;;;;10.06;100.00;100061.38;5226624;28;20074;-77
2023/01/08 10:46:40;;;;;;;2.78;0.77;;;;;;;9.97;100.00;100061.63;5235105;28;20027;-77
2023/01/08 10:49:24;;;;;;;5.70;0.90;;;;;;;10.10;100.00;100056.50;5231428;28;20051;-76
2023/01/08 10:51:55;;;;;;;6.18;0.90;;;;;;;9.99;100.00;100057.78;5231325;28;20028;-76
2023/01/08 10:54:39;;;;;;;4.18;1.50;;;;;;;10.02;100.00;100046.66;5235188;28;20024;-76
2023/01/08 10:57:27;;;;;;;4.55;0.88;;;;;;;10.03;100.00;100042.97;5231708;28;20029;-77
2023/01/08 10:59:58;;;;;;;7.10;1.13;;;;;;;10.15;100.00;100035.34;5231698;28;20054;-76
2023/01/08 11:02:36;;;;;;;10.30;3.42;;;;;;;9.93;100.00;100030.84;5230513;28;20044;-77
2023/01/08 11:05:10;;;;;;;3.38;0.90;;;;;;;9.99;100.00;100028.28;5232643;28;20087;-77
2023/01/08 11:07:41;;;;;;;7.07;1.33;;;;;;;9.97;100.00;100022.28;5234564;28;20028;-77
2023/01/08 11:10:23;;;;;;;9.30;1.38;;;;;;;10.03;100.00;100031.41;5235087;28;20059;-77
2023/01/08 11:12:59;;;;;;;4.28;0.70;;;;;;;10.04;100.00;100028.59;5231968;28;20017;-77
2023/01/08 11:15:31;;;;;;;7.53;1.60;;;;;;;10.03;100.00;100021.53;5231014;28;20481;-77
2023/01/08 11:18:24;;;;;;;4.57;1.50;;;;;;;9.97;100.00;100024.13;5236854;28;20850;-76
2023/01/08 11:21:21;;;;;;;4.43;1.05;;;;;;;10.06;100.00;100021.19;5231739;28;20024;-77
2023/01/08 11:24:13;;;;;;;11.63;1.63;;;;;;;10.12;100.00;100031.16;5235673;28;20039;-76
2023/01/08 11:26:52;;;;;;;3.85;1.23;;;;;;;10.12;100.00;100022.28;5234260;28;20017;-77
2023/01/08 11:29:37;;;;;;;8.23;1.60;;;;;;;10.08;100.00;100027.19;5236869;28;20116;-77
2023/01/08 11:32:13;;;;;;;5.50;1.33;;;;;;;10.20;100.00;100024.06;5235356;28;20037;-77
2023/01/08 11:35:11;;;;;;;4.20;1.15;;;;;;;10.54;100.00;100018.16;5233244;28;20036;-77
2023/01/08 11:37:50;;;;;;;8.23;1.50;;;;;;;10.27;100.00;100012.44;5236118;28;20028;-77
2023/01/08 11:40:26;;;;;;;8.43;0.98;;;;;;;10.32;100.00;100017.25;5234627;28;20031;-77
2023/01/08 11:43:27;;;;;;;8.70;1.60;;;;;;;10.26;100.00;100000.06;5230967;28;20021;-77
2023/01/08 11:46:18;;;;;;;7.78;1.58;;;;;;;10.42;100.00;99999.03;5234567;28;20499;-77
2023/01/08 11:49:28;;;;;;;5.57;1.75;;;;;;;10.60;100.00;99993.31;5235778;28;20017;-77